Time;durP1;ratioP1;P1;durP2;ratioP2;P2;SDS_P1;SDS_P2;PMS_P1;PMS_P2;Temp;Humidity;BMP_temperature;BMP_pressure;BME280_temperature;BME280_humidity;BME280_pressure;Samples;Min_cycle;Max_cycle;Signal;HPM_P1;HPM_P2
2024/01/11 00:01:12;;;;;;;3.28;2.20;;;5.60;70.20;;;;;;4969470;28;20105;-80
2024/01/11 00:03:38;;;;;;;3.42;2.80;;;5.50;70.10;;;;;;4980138;28;20152;-80
2024/01/11 00:06:04;;;;;;;3.03;2.30;;;5.50;70.20;;;;;;4982452;28;20920;-80
2024/01/11 00:08:30;;;;;;;2.83;2.17;;;5.60;70.40;;;;;;4997457;28;20493;-80
2024/01/11 00:10:56;;;;;;;2.55;2.10;;;5.60;70.00;;;;;;4980964;28;20050;-81
2024/01/11 00:13:22;;;;;;;2.65;2.40;;;5.60;70.10;;;;;;4978573;28;20548;-81
2024/01/11 00:15:48;;;;;;;3.92;2.30;;;5.60;70.50;;;;;;4980315;28;20049;-81
2024/01/11 00:18:14;;;;;;;2.45;2.20;;;5.60;70.20;;;;;;4984763;28;20037;-80
2024/01/11 00:20:40;;;;;;;3.30;2.38;;;5.70;70.10;;;;;;4963906;28;20034;-80
2024/01/11 00:23:06;;;;;;;3.05;2.42;;;5.70;70.00;;;;;;4981372;28;20046;-79
2024/01/11 00:25:32;;;;;;;2.92;2.50;;;5.70;69.80;;;;;;4981054;28;20039;-81
2024/01/11 00:27:58;;;;;;;2.83;2.03;;;5.70;69.70;;;;;;4982587;28;20038;-82
2024/01/11 00:30:24;;;;;;;2.78;2.17;;;5.70;69.70;;;;;;4982413;28;20031;-81
2024/01/11 00:32:50;;;;;;;3.20;2.13;;;5.70;69.80;;;;;;4978764;28;20532;-80
2024/01/11 00:35:17;;;;;;;2.35;2.08;;;5.70;69.40;;;;;;4980854;28;20103;-80
2024/01/11 00:37:43;;;;;;;4.30;2.20;;;5.70;69.90;;;;;;4984347;28;20042;-80
2024/01/11 00:40:09;;;;;;;2.47;2.28;;;5.70;70.00;;;;;;4984347;28;20382;-79
2024/01/11 00:42:35;;;;;;;3.40;2.10;;;5.70;70.10;;;;;;4983672;28;20042;-79
2024/01/11 00:45:01;;;;;;;2.60;2.20;;;5.70;70.10;;;;;;4985885;28;20046;-80
2024/01/11 00:47:27;;;;;;;2.13;1.88;;;5.70;70.10;;;;;;4971506;28;20117;-80
2024/01/11 00:49:53;;;;;;;2.05;1.85;;;5.70;70.10;;;;;;4971562;28;20134;-81
2024/01/11 00:52:20;;;;;;;2.58;2.15;;;5.70;70.20;;;;;;4985143;28;20038;-81
2024/01/11 00:54:46;;;;;;;4.03;1.90;;;5.70;70.10;;;;;;4984497;28;20050;-82
2024/01/11 00:57:11;;;;;;;2.72;2.30;;;5.70;70.30;;;;;;4985721;28;20031;-83
2024/01/11 00:59:39;;;;;;;2.53;2.10;;;5.70;70.40;;;;;;4985529;28;20034;-83
2024/01/11 01:02:05;;;;;;;2.28;1.85;;;5.70;70.30;;;;;;4986038;28;20041;-81
2024/01/11 01:04:31;;;;;;;2.60;1.88;;;5.70;70.30;;;;;;4983983;28;20034;-80
2024/01/11 01:06:57;;;;;;;4.22;2.40;;;5.80;70.40;;;;;;4985678;28;20035;-81
2024/01/11 01:09:23;;;;;;;3.50;2.10;;;5.70;70.30;;;;;;4984444;28;20105;-79
2024/01/11 01:11:49;;;;;;;2.10;1.90;;;5.70;70.50;;;;;;4970406;28;20061;-80
2024/01/11 01:14:15;;;;;;;3.20;2.03;;;5.80;70.20;;;;;;4986378;28;20126;-80
2024/01/11 01:16:42;;;;;;;2.17;1.98;;;5.80;70.70;;;;;;4955005;28;20050;-80
2024/01/11 01:19:08;;;;;;;3.45;1.90;;;5.80;70.60;;;;;;4986850;28;20052;-79
2024/01/11 01:21:33;;;;;;;2.00;1.80;;;5.80;70.30;;;;;;4971134;28;20471;-80
2024/01/11 01:23:59;;;;;;;2.17;1.60;;;5.80;70.30;;;;;;4984314;28;20041;-80
2024/01/11 01:26:26;;;;;;;1.77;1.65;;;5.80;70.10;;;;;;4984676;28;20386;-80
2024/01/11 01:28:52;;;;;;;4.10;1.77;;;5.80;70.40;;;;;;4970275;28;20060;-80
2024/01/11 01:31:18;;;;;;;1.85;1.70;;;5.80;70.70;;;;;;4971071;28;20030;-80
2024/01/11 01:33:44;;;;;;;2.92;1.58;;;5.80;70.50;;;;;;4984398;28;20031;-80
2024/01/11 01:36:12;;;;;;;4.07;2.15;;;5.80;70.80;;;;;;4967721;28;20030;-80
2024/01/11 01:38:38;;;;;;;2.13;1.83;;;5.80;70.70;;;;;;4983692;28;20085;-81
2024/01/11 01:41:05;;;;;;;1.65;1.55;;;5.90;70.60;;;;;;4970366;28;20031;-80
2024/01/11 01:43:31;;;;;;;1.73;1.52;;;5.90;70.70;;;;;;4967114;28;20042;-80
2024/01/11 01:45:58;;;;;;;3.45;1.70;;;5.90;71.10;;;;;;4970000;28;20050;-80
2024/01/11 01:48:24;;;;;;;3.03;1.77;;;5.90;70.90;;;;;;4983404;28;20058;-80
2024/01/11 01:50:50;;;;;;;2.20;1.92;;;5.90;70.80;;;;;;4985190;28;20691;-80
2024/01/11 01:53:21;;;;;;;2.08;1.58;;;5.90;70.90;;;;;;4999180;28;20064;-81
2024/01/11 01:55:48;;;;;;;2.22;1.55;;;5.90;71.00;;;;;;4985789;28;20147;-80
2024/01/11 01:58:17;;;;;;;4.03;2.33;;;5.90;71.10;;;;;;4985931;28;20493;-80
2024/01/11 02:00:45;;;;;;;1.80;1.48;;;5.90;71.30;;;;;;4982628;28;20913;-80
2024/01/11 02:03:11;;;;;;;1.70;1.60;;;5.90;71.50;;;;;;4985141;28;20065;-80
2024/01/11 02:05:38;;;;;;;1.50;1.40;;;5.90;71.50;;;;;;4985220;28;20053;-80
2024/01/11 02:08:08;;;;;;;2.33;1.30;;;5.90;71.40;;;;;;4965602;28;20066;-80
2024/01/11 02:10:35;;;;;;;3.30;1.55;;;5.90;71.60;;;;;;4986298;28;20041;-81
2024/01/11 02:13:01;;;;;;;1.95;1.42;;;5.80;71.50;;;;;;4981843;28;20109;-80
2024/01/11 02:15:27;;;;;;;2.35;1.75;;;5.80;71.60;;;;;;4983410;28;20065;-80
2024/01/11 02:17:53;;;;;;;1.58;1.42;;;5.90;71.70;;;;;;4997646;28;20035;-81
2024/01/11 02:20:19;;;;;;;1.90;1.40;;;5.90;72.40;;;;;;4970195;28;20145;-79
2024/01/11 02:22:50;;;;;;;1.27;1.13;;;5.90;72.60;;;;;;4983492;28;20393;-79
2024/01/11 02:25:16;;;;;;;2.20;1.50;;;5.90;72.00;;;;;;4985767;28;20100;-80
2024/01/11 02:27:49;;;;;;;1.33;1.23;;;5.90;71.90;;;;;;4982847;28;20137;-80
2024/01/11 02:30:16;;;;;;;2.13;1.48;;;5.90;71.80;;;;;;4984210;28;20144;-80
2024/01/11 02:32:48;;;;;;;1.60;1.50;;;5.90;71.70;;;;;;4986147;28;20042;-81
2024/01/11 02:35:18;;;;;;;2.75;1.30;;;5.90;71.60;;;;;;4986685;28;20039;-82
2024/01/11 02:37:46;;;;;;;1.55;1.35;;;5.90;71.50;;;;;;4978521;28;20709;-81
2024/01/11 02:40:13;;;;;;;2.75;1.65;;;5.90;71.50;;;;;;4961989;28;20057;-80
2024/01/11 02:42:39;;;;;;;1.85;1.52;;;5.90;71.70;;;;;;4986252;28;20030;-79
2024/01/11 02:45:06;;;;;;;2.72;1.60;;;6.00;72.00;;;;;;4986075;28;20030;-79
2024/01/11 02:47:32;;;;;;;3.72;1.90;;;6.00;72.00;;;;;;4978792;28;20030;-79
2024/01/11 02:49:58;;;;;;;2.80;1.55;;;6.00;72.10;;;;;;4980849;28;20112;-79
2024/01/11 02:52:24;;;;;;;4.63;1.90;;;6.00;72.00;;;;;;4979855;28;20035;-79
2024/01/11 02:54:50;;;;;;;5.63;1.90;;;6.00;72.10;;;;;;4984037;28;20060;-80
2024/01/11 02:57:16;;;;;;;4.78;2.53;;;6.00;72.50;;;;;;4997413;28;20038;-79
2024/01/11 02:59:43;;;;;;;5.70;2.20;;;6.00;72.80;;;;;;4968659;28;20584;-79
2024/01/11 03:02:09;;;;;;;5.82;2.85;;;6.00;73.40;;;;;;4981365;28;20500;-79
2024/01/11 03:04:35;;;;;;;7.65;3.50;;;6.10;72.90;;;;;;4981342;28;20039;-79
2024/01/11 03:07:01;;;;;;;9.77;3.50;;;6.10;73.10;;;;;;4982558;28;20034;-80
2024/01/11 03:09:27;;;;;;;13.77;4.47;;;6.10;73.20;;;;;;4983782;28;20080;-80
2024/01/11 03:11:53;;;;;;;8.73;4.18;;;6.10;73.20;;;;;;4981466;28;20121;-81
2024/01/11 03:14:19;;;;;;;13.13;5.13;;;6.10;73.60;;;;;;4969249;28;20169;-81
2024/01/11 03:16:45;;;;;;;13.52;5.07;;;6.10;73.50;;;;;;4981412;28;20051;-81
2024/01/11 03:19:11;;;;;;;13.15;6.15;;;6.10;74.40;;;;;;4982120;28;20065;-82
2024/01/11 03:21:42;;;;;;;13.57;5.57;;;6.10;73.90;;;;;;4983011;28;20042;-80
2024/01/11 03:24:08;;;;;;;16.80;7.15;;;6.10;74.20;;;;;;4980949;28;20066;-80
2024/01/11 03:26:34;;;;;;;11.52;6.05;;;6.10;73.60;;;;;;4985394;28;20521;-79
2024/01/11 03:29:00;;;;;;;13.43;6.28;;;6.20;74.00;;;;;;4984084;28;20125;-79
2024/01/11 03:31:26;;;;;;;17.00;7.03;;;6.20;74.40;;;;;;4983988;28;20034;-79
2024/01/11 03:33:52;;;;;;;15.27;6.13;;;6.20;73.70;;;;;;4985238;28;20042;-79
2024/01/11 03:36:18;;;;;;;15.05;6.45;;;6.20;73.80;;;;;;4970006;28;20067;-78
2024/01/11 03:38:44;;;;;;;13.63;6.40;;;6.20;73.60;;;;;;4996928;28;20034;-78
2024/01/11 03:41:10;;;;;;;15.70;6.05;;;6.20;73.70;;;;;;4980674;28;20520;-78
2024/01/11 03:43:37;;;;;;;11.23;4.57;;;6.20;73.40;;;;;;4979553;28;20070;-78
2024/01/11 03:46:03;;;;;;;12.25;4.97;;;6.20;73.50;;;;;;4984378;28;20049;-80
2024/01/11 03:48:31;;;;;;;10.32;4.30;;;6.30;74.30;;;;;;4981839;28;20030;-83
2024/01/11 03:50:57;;;;;;;7.97;3.88;;;6.30;74.30;;;;;;4984365;28;20057;-81
2024/01/11 03:53:23;;;;;;;8.55;3.50;;;6.30;75.00;;;;;;4978550;28;20030;-81
2024/01/11 03:55:49;;;;;;;8.57;3.95;;;6.30;74.50;;;;;;4980222;28;20126;-80
2024/01/11 03:58:15;;;;;;;7.72;2.92;;;6.30;74.40;;;;;;4983040;28;20204;-80
2024/01/11 04:00:41;;;;;;;5.80;3.00;;;6.30;74.30;;;;;;4963782;28;20034;-81
2024/01/11 04:03:07;;;;;;;6.45;2.33;;;6.30;74.80;;;;;;4980568;28;20039;-81
2024/01/11 04:05:33;;;;;;;4.38;2.45;;;6.30;74.60;;;;;;4982487;28;20066;-82
2024/01/11 04:07:59;;;;;;;5.18;2.40;;;6.30;74.40;;;;;;4968660;28;20058;-81
2024/01/11 04:10:25;;;;;;;5.30;1.85;;;6.30;74.40;;;;;;4979838;28;20043;-81
2024/01/11 04:12:51;;;;;;;3.08;1.90;;;6.30;74.70;;;;;;4982185;28;20120;-83
2024/01/11 04:15:17;;;;;;;2.38;1.55;;;6.30;74.50;;;;;;4981352;28;20065;-80
2024/01/11 04:17:43;;;;;;;2.35;1.45;;;6.40;74.80;;;;;;4983486;28;20089;-82
2024/01/11 04:20:09;;;;;;;2.22;1.20;;;6.40;74.90;;;;;;4968145;28;20433;-82
2024/01/11 04:22:35;;;;;;;3.00;1.30;;;6.40;74.90;;;;;;4978711;28;20034;-79
2024/01/11 04:25:01;;;;;;;2.50;1.48;;;6.40;75.20;;;;;;4978092;28;20072;-77
2024/01/11 04:27:27;;;;;;;2.10;1.20;;;6.30;75.20;;;;;;4978927;28;20077;-79
2024/01/11 04:29:53;;;;;;;2.90;1.33;;;6.40;74.90;;;;;;4967702;28;20034;-79
2024/01/11 04:32:19;;;;;;;2.30;1.10;;;6.40;75.20;;;;;;4979185;28;20081;-79
2024/01/11 04:34:45;;;;;;;2.45;1.23;;;6.40;74.80;;;;;;4980262;28;20035;-82
2024/01/11 04:37:11;;;;;;;2.28;1.10;;;6.40;74.80;;;;;;4966612;28;20073;-83
2024/01/11 04:39:37;;;;;;;2.13;0.77;;;6.40;75.10;;;;;;4979056;28;20040;-81
2024/01/11 04:42:03;;;;;;;1.85;0.80;;;6.40;75.40;;;;;;4968576;28;20678;-81
2024/01/11 04:44:29;;;;;;;1.17;0.90;;;6.40;75.60;;;;;;4982099;28;20539;-81
2024/01/11 04:46:55;;;;;;;2.80;1.10;;;6.40;76.00;;;;;;4978795;28;20058;-81
2024/01/11 04:49:21;;;;;;;1.88;1.00;;;6.40;76.00;;;;;;4982067;28;20040;-80
2024/01/11 04:51:47;;;;;;;2.72;0.95;;;6.40;76.90;;;;;;4982371;28;20674;-79
2024/01/11 04:54:13;;;;;;;3.08;1.02;;;6.40;77.50;;;;;;4982891;28;20022;-81
2024/01/11 04:56:39;;;;;;;2.70;0.90;;;6.50;78.20;;;;;;4983640;28;20568;-80
2024/01/11 04:59:05;;;;;;;2.30;1.02;;;6.50;78.60;;;;;;4983284;28;20035;-79
2024/01/11 05:01:31;;;;;;;5.88;1.00;;;6.50;78.90;;;;;;4967294;28;20617;-81
2024/01/11 05:03:57;;;;;;;2.28;1.20;;;6.50;78.80;;;;;;4983558;28;20083;-81
2024/01/11 05:06:24;;;;;;;2.78;0.90;;;6.50;79.40;;;;;;4983923;28;21366;-80
2024/01/11 05:08:52;;;;;;;2.67;1.27;;;6.50;79.40;;;;;;4981416;28;20043;-80
2024/01/11 05:11:20;;;;;;;2.80;1.10;;;6.50;79.50;;;;;;4983872;28;20041;-78
2024/01/11 05:13:47;;;;;;;5.00;1.48;;;6.50;80.10;;;;;;4982811;28;20529;-78
2024/01/11 05:16:25;;;;;;;2.28;0.90;;;6.50;79.90;;;;;;4983336;28;20529;-79
2024/01/11 05:18:52;;;;;;;3.47;1.17;;;6.50;79.70;;;;;;4983437;28;20145;-79
2024/01/11 05:21:19;;;;;;;3.97;1.40;;;6.60;79.00;;;;;;4985362;28;20052;-78
2024/01/11 05:23:45;;;;;;;4.53;1.42;;;6.50;78.20;;;;;;4986654;28;20038;-78
2024/01/11 05:26:12;;;;;;;2.17;1.55;;;6.60;78.20;;;;;;4986263;28;20121;-79
2024/01/11 05:28:38;;;;;;;3.97;1.60;;;6.60;79.10;;;;;;4986903;28;20038;-79
2024/01/11 05:31:11;;;;;;;4.85;1.85;;;6.60;78.90;;;;;;4970428;28;20046;-79
2024/01/11 05:33:41;;;;;;;3.28;1.42;;;6.60;78.10;;;;;;4985831;28;20053;-79
2024/01/11 05:36:07;;;;;;;2.90;1.00;;;6.60;77.80;;;;;;4986251;28;20515;-79
2024/01/11 05:38:34;;;;;;;2.80;1.27;;;6.70;77.80;;;;;;4986479;28;20042;-79
2024/01/11 05:41:00;;;;;;;2.65;1.27;;;6.60;77.70;;;;;;4987061;28;20570;-79
2024/01/11 05:43:26;;;;;;;3.78;1.20;;;6.60;77.60;;;;;;4984800;28;20035;-79
2024/01/11 05:45:52;;;;;;;3.17;1.25;;;6.60;77.50;;;;;;4983868;28;20493;-79
2024/01/11 05:48:18;;;;;;;1.88;1.30;;;6.70;77.40;;;;;;4984340;28;20035;-79
2024/01/11 05:50:44;;;;;;;2.33;1.45;;;6.70;78.00;;;;;;4986117;28;20049;-79
2024/01/11 05:53:12;;;;;;;1.42;1.13;;;6.70;78.30;;;;;;4985313;28;20061;-79
2024/01/11 05:55:38;;;;;;;2.83;1.17;;;6.70;78.30;;;;;;4985059;28;20034;-79
2024/01/11 05:58:04;;;;;;;1.55;0.98;;;6.70;78.70;;;;;;4984726;28;20045;-79
2024/01/11 06:00:30;;;;;;;1.70;1.08;;;6.70;78.70;;;;;;4985126;28;20033;-80
2024/01/11 06:02:56;;;;;;;1.52;0.90;;;6.70;78.60;;;;;;4984998;28;20030;-80
2024/01/11 06:05:22;;;;;;;1.38;1.00;;;6.70;78.90;;;;;;4985354;28;20058;-80
2024/01/11 06:07:48;;;;;;;2.30;1.02;;;6.70;78.80;;;;;;4981616;28;20561;-80
2024/01/11 06:10:15;;;;;;;2.50;1.10;;;6.70;78.90;;;;;;4985033;28;20039;-80
2024/01/11 06:12:41;;;;;;;1.63;1.10;;;6.70;78.70;;;;;;4980759;28;20044;-80
2024/01/11 06:15:07;;;;;;;1.42;0.95;;;6.70;78.90;;;;;;4982404;28;20071;-81
2024/01/11 06:17:33;;;;;;;0.98;0.77;;;6.70;78.80;;;;;;4998741;28;20041;-80
2024/01/11 06:19:59;;;;;;;3.15;1.00;;;6.70;78.80;;;;;;4983867;28;20034;-80
2024/01/11 06:22:25;;;;;;;3.22;1.08;;;6.70;78.90;;;;;;4983022;28;20064;-79
2024/01/11 06:24:51;;;;;;;1.35;0.90;;;6.70;78.50;;;;;;4984709;28;20448;-79
2024/01/11 06:27:17;;;;;;;2.05;1.23;;;6.70;79.10;;;;;;4985454;28;20041;-78
2024/01/11 06:29:43;;;;;;;1.02;0.70;;;6.70;79.20;;;;;;4986401;28;20042;-78
2024/01/11 06:32:09;;;;;;;1.85;0.88;;;6.70;78.00;;;;;;4984759;28;20042;-77
2024/01/11 06:34:36;;;;;;;1.25;0.82;;;6.80;77.80;;;;;;4985103;28;20092;-77
2024/01/11 06:37:02;;;;;;;2.75;0.90;;;6.80;77.60;;;;;;4983649;28;20057;-77
2024/01/11 06:39:29;;;;;;;2.28;1.27;;;6.80;77.70;;;;;;4985868;28;20088;-78
2024/01/11 06:41:55;;;;;;;1.65;0.77;;;6.80;77.90;;;;;;4986331;28;20046;-79
2024/01/11 06:44:22;;;;;;;1.70;0.60;;;6.80;78.10;;;;;;4985651;28;20038;-79
2024/01/11 06:46:47;;;;;;;1.23;0.80;;;6.80;78.30;;;;;;4985534;28;20065;-77
2024/01/11 06:49:14;;;;;;;1.40;0.90;;;6.90;78.70;;;;;;4985425;28;20038;-77
2024/01/11 06:51:40;;;;;;;1.15;0.90;;;6.90;78.80;;;;;;4968409;28;20055;-79
2024/01/11 06:54:07;;;;;;;10.35;0.90;;;6.90;78.70;;;;;;4980636;28;20034;-78
2024/01/11 06:56:33;;;;;;;1.50;0.90;;;6.90;79.40;;;;;;4983453;28;20390;-78
2024/01/11 06:58:59;;;;;;;1.88;0.77;;;6.90;79.50;;;;;;4982538;28;20924;-77
2024/01/11 07:01:25;;;;;;;1.30;0.82;;;6.90;79.30;;;;;;4984811;28;20461;-77
2024/01/11 07:03:51;;;;;;;1.95;1.02;;;6.90;79.40;;;;;;4984318;28;20035;-77
2024/01/11 07:06:18;;;;;;;1.40;1.00;;;6.90;79.50;;;;;;4984480;28;20030;-78
2024/01/11 07:08:44;;;;;;;1.52;1.20;;;6.90;79.80;;;;;;4981286;28;20134;-77
2024/01/11 07:11:11;;;;;;;1.30;1.17;;;6.90;79.70;;;;;;4982871;28;20038;-80
2024/01/11 07:13:37;;;;;;;2.75;1.52;;;6.90;79.50;;;;;;4983658;28;20398;-80
2024/01/11 07:16:03;;;;;;;1.80;1.40;;;6.90;79.30;;;;;;4980368;28;20038;-77
2024/01/11 07:18:30;;;;;;;2.47;1.35;;;7.00;79.40;;;;;;4982728;28;20054;-77
2024/01/11 07:21:00;;;;;;;1.73;1.13;;;7.00;79.20;;;;;;4981316;28;20038;-78
2024/01/11 07:23:26;;;;;;;1.42;1.10;;;7.00;79.30;;;;;;4996652;28;20041;-79
2024/01/11 07:25:52;;;;;;;1.38;1.08;;;7.00;79.20;;;;;;4984987;28;20502;-77
2024/01/11 07:28:19;;;;;;;1.75;1.30;;;6.90;78.90;;;;;;4984726;28;20455;-77
2024/01/11 07:30:46;;;;;;;1.45;1.10;;;7.00;79.10;;;;;;4990067;28;20050;-84
2024/01/11 07:33:12;;;;;;;1.42;0.98;;;7.00;79.00;;;;;;4990582;28;20057;-87
2024/01/11 07:35:38;;;;;;;1.75;1.08;;;7.00;78.90;;;;;;4975417;28;20309;-84
2024/01/11 07:38:04;;;;;;;2.63;1.05;;;7.00;79.00;;;;;;5005918;28;20039;-87
2024/01/11 07:40:30;;;;;;;2.58;1.23;;;7.00;78.50;;;;;;4991594;28;20031;-80
2024/01/11 07:42:56;;;;;;;2.15;1.00;;;7.10;81.20;;;;;;4990554;28;20042;-85
2024/01/11 07:45:23;;;;;;;2.63;1.10;;;7.20;81.40;;;;;;4991979;28;20111;-85
2024/01/11 07:47:49;;;;;;;2.90;1.00;;;7.20;81.60;;;;;;4990789;28;20042;-84
2024/01/11 07:50:15;;;;;;;2.00;1.00;;;7.20;81.40;;;;;;4992331;28;20045;-93
2024/01/11 07:52:41;;;;;;;2.67;1.00;;;7.20;80.80;;;;;;5002237;28;20038;-84
2024/01/11 07:55:09;;;;;;;1.92;0.95;;;7.20;80.20;;;;;;5007926;28;20034;-85
2024/01/11 07:57:36;;;;;;;3.95;0.82;;;7.20;79.90;;;;;;4991394;28;20037;-83
2024/01/11 08:00:03;;;;;;;1.92;0.90;;;7.20;79.90;;;;;;4993560;28;20038;-74
2024/01/11 08:02:39;;;;;;;1.88;0.73;;;7.30;79.70;;;;;;4991851;28;20030;-85
2024/01/11 08:05:05;;;;;;;1.48;0.82;;;7.30;80.50;;;;;;4970856;28;20037;-90
2024/01/11 08:07:31;;;;;;;0.63;0.55;;;7.30;80.80;;;;;;4975035;28;20124;-83
2024/01/11 08:09:57;;;;;;;1.67;0.68;;;7.30;80.60;;;;;;4989027;28;20518;-83
2024/01/11 08:12:23;;;;;;;0.90;0.60;;;7.30;80.60;;;;;;4990728;28;20498;-83
2024/01/11 08:14:49;;;;;;;1.95;0.70;;;7.30;80.20;;;;;;4990870;28;20577;-83
2024/01/11 08:17:15;;;;;;;1.63;0.90;;;7.40;80.10;;;;;;4990111;28;20533;-82
2024/01/11 08:19:44;;;;;;;1.35;0.60;;;7.40;79.70;;;;;;4991782;28;20081;-90
2024/01/11 08:22:11;;;;;;;1.58;0.82;;;7.40;79.60;;;;;;4976672;28;20046;-86
2024/01/11 08:24:38;;;;;;;0.40;0.40;;;7.40;79.20;;;;;;4991049;28;20121;-87
2024/01/11 08:27:04;;;;;;;1.75;0.90;;;7.40;79.00;;;;;;4990075;28;20512;-85
2024/01/11 08:29:30;;;;;;;0.60;0.60;;;7.40;78.70;;;;;;4991819;28;20034;-82
2024/01/11 08:31:56;;;;;;;2.40;0.60;;;7.40;78.60;;;;;;4991795;28;20188;-82
2024/01/11 08:34:23;;;;;;;0.73;0.65;;;7.40;78.30;;;;;;4973093;28;20069;-82
2024/01/11 08:36:49;;;;;;;1.33;0.80;;;7.40;78.40;;;;;;4975731;28;20113;-85
2024/01/11 08:39:15;;;;;;;1.15;0.85;;;7.40;78.50;;;;;;4975654;28;20121;-85
2024/01/11 08:41:41;;;;;;;4.57;0.95;;;7.40;78.30;;;;;;4993290;28;20089;-83
2024/01/11 08:44:07;;;;;;;0.65;0.50;;;7.40;78.30;;;;;;4992678;28;20041;-82
2024/01/11 08:46:34;;;;;;;1.60;0.77;;;7.40;78.50;;;;;;4992103;28;20030;-82
2024/01/11 08:49:03;;;;;;;2.45;0.73;;;7.40;78.70;;;;;;4958566;28;20571;-86
2024/01/11 08:51:29;;;;;;;0.70;0.40;;;7.40;78.70;;;;;;4988795;28;20038;-87
2024/01/11 08:53:55;;;;;;;2.30;0.85;;;7.40;78.90;;;;;;4972949;28;20044;-89
2024/01/11 08:56:22;;;;;;;0.77;0.68;;;7.50;79.40;;;;;;4992789;28;20066;-90
2024/01/11 08:58:48;;;;;;;1.05;0.60;;;7.40;79.40;;;;;;4995427;28;20537;-75
2024/01/11 09:01:15;;;;;;;2.35;0.50;;;7.50;79.40;;;;;;4990231;28;20401;-86
2024/01/11 09:03:41;;;;;;;0.98;0.47;;;7.50;81.10;;;;;;4989462;28;20034;-84
2024/01/11 09:06:07;;;;;;;0.80;0.50;;;7.50;82.90;;;;;;4990063;28;20057;-88
2024/01/11 09:08:33;;;;;;;1.13;0.40;;;7.60;81.90;;;;;;4971287;28;20514;-89
2024/01/11 09:11:00;;;;;;;2.60;0.45;;;7.60;81.40;;;;;;4975811;28;20035;-86
2024/01/11 09:13:27;;;;;;;0.75;0.40;;;7.60;81.10;;;;;;4992171;28;20030;-87
2024/01/11 09:15:54;;;;;;;0.60;0.40;;;7.60;81.00;;;;;;4989567;28;20066;-91
2024/01/11 09:18:21;;;;;;;2.85;0.73;;;7.60;80.20;;;;;;4991898;28;21416;-86
2024/01/11 09:20:47;;;;;;;0.77;0.50;;;7.60;79.80;;;;;;4974717;28;20042;-84
2024/01/11 09:23:13;;;;;;;1.20;0.40;;;7.60;79.40;;;;;;4973947;28;20035;-84
2024/01/11 09:25:40;;;;;;;0.90;0.43;;;7.60;79.10;;;;;;5000837;28;20457;-87
2024/01/11 09:28:06;;;;;;;0.60;0.40;;;7.60;79.00;;;;;;4991655;28;20085;-87
2024/01/11 09:30:32;;;;;;;0.75;0.40;;;7.60;78.60;;;;;;4975630;28;20053;-85
2024/01/11 09:32:58;;;;;;;2.05;0.50;;;7.60;78.50;;;;;;4989709;28;20104;-85
2024/01/11 09:35:24;;;;;;;1.33;0.70;;;7.80;84.20;;;;;;4986392;28;20042;-89
2024/01/11 09:37:51;;;;;;;1.33;0.60;;;7.90;86.60;;;;;;4974569;28;20037;-86
2024/01/11 09:40:18;;;;;;;1.80;0.40;;;8.00;86.00;;;;;;4989677;28;20034;-87
2024/01/11 09:42:44;;;;;;;1.40;0.50;;;8.10;87.70;;;;;;4959019;28;20057;-86
2024/01/11 09:45:18;;;;;;;1.63;0.50;;;8.20;85.40;;;;;;4975397;28;20387;-88
2024/01/11 09:47:50;;;;;;;1.40;0.60;;;8.20;82.50;;;;;;5000668;28;20039;-88
2024/01/11 09:50:21;;;;;;;1.70;0.32;;;8.20;80.90;;;;;;4976344;28;20733;-90
2024/01/11 09:52:48;;;;;;;1.65;0.30;;;8.10;80.00;;;;;;4974846;28;20510;-90
2024/01/11 09:55:16;;;;;;;1.67;0.50;;;8.10;79.00;;;;;;5004109;28;20058;-89
2024/01/11 09:57:46;;;;;;;0.35;0.35;;;8.10;78.20;;;;;;4971047;28;20178;-90
2024/01/11 10:00:24;;;;;;;0.60;0.60;;;8.10;77.60;;;;;;4973888;28;20061;-89
2024/01/11 10:02:50;;;;;;;1.35;0.35;;;8.10;77.30;;;;;;4975171;28;20039;-89
2024/01/11 10:05:18;;;;;;;0.40;0.40;;;8.10;76.60;;;;;;4988032;28;20035;-89
2024/01/11 10:07:48;;;;;;;0.45;0.43;;;8.10;76.30;;;;;;4975700;28;20038;-89
2024/01/11 10:10:17;;;;;;;0.45;0.30;;;8.10;75.60;;;;;;4976840;28;20038;-89
2024/01/11 10:12:43;;;;;;;0.40;0.40;;;8.10;75.00;;;;;;4968162;28;20490;-89
2024/01/11 10:15:10;;;;;;;0.82;0.38;;;8.00;74.80;;;;;;4975852;28;20026;-88
2024/01/11 10:17:44;;;;;;;0.30;0.30;;;8.00;74.30;;;;;;4973202;28;20045;-87
2024/01/11 10:20:14;;;;;;;0.80;0.40;;;8.00;74.00;;;;;;4974536;28;20046;-88
2024/01/11 10:22:41;;;;;;;1.23;0.30;;;8.00;74.20;;;;;;4958829;28;20041;-86
2024/01/11 10:25:12;;;;;;;0.50;0.40;;;8.00;73.80;;;;;;4982616;28;20089;-88
2024/01/11 10:27:42;;;;;;;0.38;0.30;;;7.90;73.60;;;;;;4988558;28;20061;-87
2024/01/11 10:30:08;;;;;;;0.30;0.30;;;7.90;73.30;;;;;;4990332;28;20118;-87
2024/01/11 10:32:34;;;;;;;0.45;0.43;;;7.90;73.50;;;;;;4986852;28;20081;-88
2024/01/11 10:35:04;;;;;;;0.43;0.20;;;7.90;73.00;;;;;;4987614;28;20034;-88
2024/01/11 10:37:35;;;;;;;0.30;0.30;;;7.90;72.80;;;;;;5000350;28;20057;-89
2024/01/11 10:40:09;;;;;;;0.75;0.50;;;7.90;72.70;;;;;;4975114;28;20053;-88
2024/01/11 10:42:38;;;;;;;0.45;0.40;;;7.90;72.70;;;;;;4987120;28;20041;-89
2024/01/11 10:45:16;;;;;;;0.82;0.52;;;7.90;72.60;;;;;;4993262;28;20057;-87
2024/01/11 10:47:56;;;;;;;0.65;0.30;;;7.80;72.70;;;;;;4977600;28;20034;-91
2024/01/11 10:50:23;;;;;;;0.30;0.30;;;7.80;72.90;;;;;;4989845;28;20099;-87
2024/01/11 10:53:10;;;;;;;0.50;0.30;;;7.80;72.50;;;;;;4991304;28;20042;-88
2024/01/11 10:55:37;;;;;;;0.50;0.50;;;7.70;71.70;;;;;;4922433;28;20058;-91
2024/01/11 10:58:04;;;;;;;0.60;0.60;;;7.70;70.90;;;;;;4970999;28;20035;-88
2024/01/11 11:00:31;;;;;;;0.43;0.43;;;7.70;69.80;;;;;;4961141;28;20050;-88
2024/01/11 11:03:00;;;;;;;1.00;0.70;;;7.70;69.70;;;;;;4980900;28;20042;-87
2024/01/11 11:05:28;;;;;;;0.40;0.40;;;7.70;70.10;;;;;;4968115;28;20046;-87
2024/01/11 11:07:55;;;;;;;0.55;0.50;;;7.70;69.50;;;;;;4968598;28;20031;-88
2024/01/11 11:10:22;;;;;;;1.00;0.50;;;7.70;69.10;;;;;;4948147;28;20038;-87
2024/01/11 11:12:49;;;;;;;0.40;0.40;;;7.70;69.40;;;;;;4969847;28;20094;-91
2024/01/11 11:15:15;;;;;;;0.75;0.35;;;7.70;69.20;;;;;;4970186;28;20031;-91
2024/01/11 11:17:46;;;;;;;0.52;0.40;;;7.60;68.80;;;;;;4956528;28;20912;-89
2024/01/11 11:20:13;;;;;;;0.60;0.30;;;7.60;68.70;;;;;;4952428;28;20050;-92
2024/01/11 11:22:42;;;;;;;0.38;0.38;;;7.60;68.50;;;;;;4956327;28;20047;-92
2024/01/11 11:25:10;;;;;;;0.60;0.50;;;7.60;68.40;;;;;;4923546;28;20035;-90
2024/01/11 11:27:37;;;;;;;0.47;0.40;;;7.60;68.00;;;;;;4939308;28;20158;-92
2024/01/11 11:30:05;;;;;;;0.30;0.30;;;7.50;67.80;;;;;;4953300;28;20062;-90
2024/01/11 11:32:42;;;;;;;0.47;0.47;;;7.50;67.80;;;;;;4967006;28;20195;-93
2024/01/11 11:35:08;;;;;;;0.40;0.40;;;7.50;67.60;;;;;;4966654;28;20030;-92
2024/01/11 11:37:37;;;;;;;0.98;0.70;;;7.50;68.00;;;;;;4973476;28;20046;-92
2024/01/11 11:40:13;;;;;;;0.40;0.30;;;7.50;67.30;;;;;;4987966;28;20038;-92
2024/01/11 11:42:40;;;;;;;0.93;0.45;;;7.40;67.60;;;;;;4960094;28;20041;-91
2024/01/11 11:45:11;;;;;;;0.40;0.40;;;7.40;67.50;;;;;;4990704;28;20030;-88
2024/01/11 11:47:38;;;;;;;0.32;0.30;;;7.40;67.40;;;;;;4978801;28;20046;-90
2024/01/11 11:50:13;;;;;;;0.80;0.80;;;7.40;66.90;;;;;;4991827;28;20038;-91
2024/01/11 11:52:43;;;;;;;3.28;1.27;;;7.30;66.60;;;;;;4956505;28;20918;-89
2024/01/11 11:55:09;;;;;;;2.60;1.52;;;7.30;66.40;;;;;;4984475;28;20529;-88
2024/01/11 11:57:37;;;;;;;2.17;1.67;;;7.30;66.40;;;;;;4972793;28;20046;-88
2024/01/11 12:00:06;;;;;;;2.33;1.70;;;7.30;66.10;;;;;;4957005;28;20121;-88
2024/01/11 12:02:37;;;;;;;1.90;1.70;;;7.30;65.80;;;;;;4977679;28;20035;-91
2024/01/11 12:05:06;;;;;;;2.70;1.52;;;7.20;65.50;;;;;;4988327;28;20027;-91
2024/01/11 12:07:32;;;;;;;1.23;1.13;;;7.20;65.60;;;;;;4983544;28;20382;-91
2024/01/11 12:09:58;;;;;;;2.33;1.48;;;7.20;65.40;;;;;;4969840;28;20044;-89
2024/01/11 12:12:24;;;;;;;1.20;1.00;;;7.20;65.20;;;;;;4969098;28;21244;-91
2024/01/11 12:14:50;;;;;;;1.23;1.10;;;7.20;65.30;;;;;;4989502;28;20030;-91
2024/01/11 12:17:17;;;;;;;1.75;1.15;;;7.10;65.00;;;;;;4972960;28;20041;-91
2024/01/11 12:19:43;;;;;;;1.25;1.00;;;7.10;64.50;;;;;;4986229;28;20042;-90
2024/01/11 12:22:09;;;;;;;1.27;0.93;;;7.10;64.30;;;;;;4957136;28;20035;-90
2024/01/11 12:24:36;;;;;;;0.60;0.60;;;7.00;63.90;;;;;;4969534;28;20461;-92
2024/01/11 12:27:02;;;;;;;1.00;0.90;;;7.00;63.70;;;;;;4988134;28;20481;-91
2024/01/11 12:29:30;;;;;;;0.88;0.68;;;7.00;63.70;;;;;;4968861;28;20080;-90
2024/01/11 12:32:00;;;;;;;0.88;0.65;;;7.00;63.50;;;;;;4988176;28;20057;-91
2024/01/11 12:34:27;;;;;;;0.57;0.57;;;7.00;63.50;;;;;;4956512;28;20350;-90
2024/01/11 12:36:55;;;;;;;2.55;0.70;;;6.90;63.40;;;;;;4985780;28;20038;-91
2024/01/11 12:39:24;;;;;;;1.10;1.00;;;6.90;63.30;;;;;;4957325;28;20034;-89
2024/01/11 12:41:53;;;;;;;0.70;0.70;;;6.90;63.10;;;;;;4969396;28;20032;-90
2024/01/11 12:44:20;;;;;;;1.50;0.80;;;6.80;63.00;;;;;;4970373;28;20039;-91
2024/01/11 12:46:49;;;;;;;1.00;0.80;;;6.80;63.10;;;;;;4988557;28;20034;-91
2024/01/11 12:49:16;;;;;;;1.48;0.60;;;6.80;63.30;;;;;;4985375;28;20041;-92
2024/01/11 12:51:42;;;;;;;1.15;0.70;;;6.70;63.20;;;;;;4956928;28;20034;-91
2024/01/11 12:54:19;;;;;;;2.60;0.55;;;6.70;63.40;;;;;;4970672;28;20089;-92